Latest Coastal Weather Observations for Darwin Harbour

IDD60701

Issued at 1:01 pm CST Friday 23 June 2017 (issued every 10 minutes, with the page automatically refreshed every 10 minutes)

About coastal observations | Map of coastal stations | Coastal observations for NT | Marine services | Other Formats
Station Details ID: 014072 Name: DARWIN NTC AWS Lat: -12.47 Lon: 130.85 Height: 0.0 m
Data from the previous 72 hours. | See also: Recent months for locations in Northern Territory
Date/Time
CST
Temp
°C
Wind Pressure Rain since
9am
mm
Weather Cloud Vis
km
Sea
Height
m
Swell
Dir  Spd
kts
Gust
kts
hPa Trend Height
m
Period
s
Dir
23/01:00pm - SW 1 3 1012.0 - - - - - - - - -
23/12:30pm - WSW 2 4 1012.6 - - - - - - - - -
23/12:00pm - WSW 3 4 1013.4 - - - - - - - - -
23/11:30am - SE 5 6 1013.7 - - - - - - - - -
23/11:00am - SE 6 7 1014.0 - - - - - - - - -
23/10:30am - ESE 5 6 1014.3 - - - - - - - - -
23/10:00am - ESE 4 5 1014.5 - - - - - - - - -
23/09:30am - ESE 5 6 1014.8 - - - - - - - - -
23/09:00am - SE 6 8 1014.3 - - - - - - - - -
23/08:30am - ESE 5 6 1014.0 - - - - - - - - -
23/08:00am - SSW 3 3 1013.6 - - - - - - - - -
23/07:30am - SSE 2 3 1013.5 - - - - - - - - -
23/07:00am - SSE 2 3 1013.2 - - - - - - - - -
23/06:30am - ESE 1 2 1013.1 - - - - - - - - -
23/06:00am - E 1 2 1012.8 - - - - - - - - -
23/05:30am - ENE 1 3 1012.6 - - - - - - - - -
23/05:00am - ESE 2 3 1012.5 - - - - - - - - -
23/04:30am - SSE 2 3 1012.7 - - - - - - - - -
23/04:00am - S 5 6 1012.6 - - - - - - - - -
23/03:30am - SSW 4 5 1012.7 - - - - - - - - -
23/03:00am - SSW 4 5 1012.9 - - - - - - - - -
23/02:30am - SSW 3 4 1013.0 - - - - - - - - -
23/02:00am - SW 3 4 1013.4 - - - - - - - - -
23/01:30am - SSW 4 6 1013.7 - - - - - - - - -
23/01:00am - SW 2 2 1013.9 - - - - - - - - -
23/12:30am - SW 3 4 1014.0 - - - - - - - - -
23/12:00am - SW 2 3 1014.1 - - - - - - - - -
 
Date/Time
CST
Temp
°C
Wind Pressure Rain since
9am
mm
Weather Cloud Vis
km
Sea
Height
m
Swell
Dir  Spd
kts
Gust
kts
hPa Trend Height
m
Period
s
Dir
22/11:30pm - SSW 5 5 1013.9 - - - - - - - - -
22/11:00pm - SSW 8 10 1014.0 - - - - - - - - -
22/10:30pm - SSW 7 8 1014.1 - - - - - - - - -
22/10:00pm - SSW 5 6 1014.1 - - - - - - - - -
22/09:30pm - NE 2 6 1013.9 - - - - - - - - -
22/09:00pm - NE 5 9 1013.6 - - - - - - - - -
22/08:30pm - NE 5 8 1013.4 - - - - - - - - -
22/08:00pm - NE 4 7 1013.1 - - - - - - - - -
22/07:30pm - NE 5 9 1012.8 - - - - - - - - -
22/07:00pm - NE 4 8 1012.4 - - - - - - - - -
22/06:30pm - NNE 5 9 1011.9 - - - - - - - - -
22/06:00pm - N 7 11 1011.6 - - - - - - - - -
22/05:30pm - N 5 9 1011.3 - - - - - - - - -
22/05:00pm - NNW 4 9 1011.0 - - - - - - - - -
22/04:30pm - WNW 6 9 1011.0 - - - - - - - - -
22/04:00pm - NW 6 9 1010.9 - - - - - - - - -
22/03:30pm - NW 5 10 1011.0 - - - - - - - - -
22/03:00pm - SSE 2 4 1011.3 - - - - - - - - -
22/02:30pm - SE 4 5 1011.5 - - - - - - - - -
22/02:00pm - SSE 4 5 1012.0 - - - - - - - - -
22/01:30pm - SE 7 7 1012.2 - - - - - - - - -
22/01:00pm - SE 9 12 1012.6 - - - - - - - - -
22/12:30pm - ESE 12 14 1013.0 - - - - - - - - -
22/12:00pm - E 14 16 1013.4 - - - - - - - - -
22/11:30am - E 10 15 1013.8 - - - - - - - - -
22/11:00am - E 9 11 1014.2 - - - - - - - - -
22/10:30am - ESE 9 11 1014.5 - - - - - - - - -
22/10:00am - E 9 12 1014.8 - - - - - - - - -
22/09:30am - ESE 9 10 1014.9 - - - - - - - - -
22/09:00am - E 9 12 1014.8 - - - - - - - - -
22/08:30am - E 9 11 1014.5 - - - - - - - - -
22/08:00am - E 7 10 1014.2 - - - - - - - - -
22/07:30am - E 7 10 1013.9 - - - - - - - - -
22/07:00am - E 7 9 1013.7 - - - - - - - - -
22/06:30am - E 8 11 1013.3 - - - - - - - - -
22/06:00am - E 9 11 1012.9 - - - - - - - - -
22/05:30am - E 7 9 1012.9 - - - - - - - - -
22/05:00am - ESE 7 8 1012.9 - - - - - - - - -
22/04:30am - SE 6 7 1012.8 - - - - - - - - -
22/04:00am - E 4 6 1012.9 - - - - - - - - -
22/03:30am - ENE 2 6 1013.0 - - - - - - - - -
22/03:00am - E 3 4 1013.1 - - - - - - - - -
22/02:30am - SSE 1 2 1013.1 - - - - - - - - -
22/02:00am - S 2 3 1013.4 - - - - - - - - -
22/01:30am - S 3 3 1013.7 - - - - - - - - -
22/01:00am - SSW 3 3 1013.8 - - - - - - - - -
22/12:30am - WSW 2 3 1013.8 - - - - - - - - -
22/12:00am - WSW 3 4 1013.9 - - - - - - - - -
 
Date/Time
CST
Temp
°C
Wind Pressure Rain since
9am
mm
Weather Cloud Vis
km
Sea
Height
m
Swell
Dir  Spd
kts
Gust
kts
hPa Trend Height
m
Period
s
Dir
21/11:30pm - SW 3 4 1013.9 - - - - - - - - -
21/11:00pm - WSW 2 4 1013.9 - - - - - - - - -
21/10:30pm - WSW 3 4 1013.8 - - - - - - - - -
21/10:00pm - WSW 4 5 1013.7 - - - - - - - - -
21/09:30pm - WSW 5 7 1013.5 - - - - - - - - -
21/09:00pm - WSW 5 7 1013.2 - - - - - - - - -
21/08:30pm - WSW 2 4 1012.7 - - - - - - - - -
21/08:00pm - W 2 4 1012.4 - - - - - - - - -
21/07:30pm - N 4 7 1012.1 - - - - - - - - -
21/07:00pm - N 6 9 1011.8 - - - - - - - - -
21/06:30pm - NNW 5 8 1011.4 - - - - - - - - -
21/06:00pm - N 4 9 1010.9 - - - - - - - - -
21/05:30pm - NNW 6 10 1010.6 - - - - - - - - -
21/05:00pm - NNW 5 10 1010.5 - - - - - - - - -
21/04:30pm - NW 5 9 1010.4 - - - - - - - - -
21/04:00pm - WNW 5 9 1010.4 - - - - - - - - -
21/03:30pm - E 5 6 1010.4 - - - - - - - - -
21/03:00pm - E 6 8 1010.6 - - - - - - - - -
21/02:30pm - ESE 6 7 1010.9 - - - - - - - - -
21/02:00pm - ESE 6 7 1011.2 - - - - - - - - -
21/01:30pm - ESE 7 10 1011.6 - - - - - - - - -
21/01:00pm - ESE 9 12 1012.0 - - - - - - - - -
21/12:30pm - ESE 10 13 1012.6 - - - - - - - - -
21/12:00pm - ESE 11 13 1012.9 - - - - - - - - -
21/11:30am - ESE 10 11 1013.4 - - - - - - - - -
21/11:00am - SE 8 10 1013.7 - - - - - - - - -
21/10:30am - ESE 8 9 1013.9 - - - - - - - - -
21/10:00am - E 8 10 1014.0 - - - - - - - - -
21/09:30am - E 8 10 1014.1 - - - - - - - - -
21/09:00am - ESE 9 11 1014.0 - - - - - - - - -
21/08:30am - ESE 9 11 1013.7 - - - - - - - - -
21/08:00am - ESE 7 7 1013.4 - - - - - - - - -
21/07:30am - ESE 7 8 1013.1 - - - - - - - - -
21/07:00am - ESE 6 8 1012.9 - - - - - - - - -
21/06:30am - ESE 7 9 1012.7 - - - - - - - - -
21/06:00am - SE 3 4 1012.5 - - - - - - - - -
21/05:30am - SSE 2 4 1012.3 - - - - - - - - -
21/05:00am - S 4 5 1012.2 - - - - - - - - -
21/04:30am - S 3 4 1012.1 - - - - - - - - -
21/04:00am - SSW 4 5 1012.3 - - - - - - - - -
21/03:30am - SSW 1 2 1012.4 - - - - - - - - -
21/03:00am - SSW 3 4 1012.6 - - - - - - - - -
21/02:30am - SSW 4 5 1012.8 - - - - - - - - -
21/02:00am - SSW 4 5 1012.8 - - - - - - - - -
21/01:30am - SSW 2 3 1012.9 - - - - - - - - -
21/01:00am - SW 5 7 1012.9 - - - - - - - - -
21/12:30am - SW 6 9 1013.0 - - - - - - - - -
21/12:00am - SW 7 10 1013.0 - - - - - - - - -
 
Date/Time
CST
Temp
°C
Wind Pressure Rain since
9am
mm
Weather Cloud Vis
km
Sea
Height
m
Swell
Dir  Spd
kts
Gust
kts
hPa Trend Height
m
Period
s
Dir
20/11:30pm - SW 9 12 1013.2 - - - - - - - - -
20/11:00pm - SW 7 9 1013.3 - - - - - - - - -
20/10:30pm - SSW 8 11 1013.3 - - - - - - - - -
20/10:00pm - SW 7 8 1013.2 - - - - - - - - -
20/09:30pm - SW 5 7 1012.9 - - - - - - - - -
20/09:00pm - SW 7 8 1012.6 - - - - - - - - -
20/08:30pm - NE 2 4 1012.1 - - - - - - - - -
20/08:00pm - ENE 3 5 1011.8 - - - - - - - - -
20/07:30pm - NE 3 8 1011.5 - - - - - - - - -
20/07:00pm - NE 4 7 1011.2 - - - - - - - - -
20/06:30pm - NE 5 9 1011.0 - - - - - - - - -
20/06:00pm - NE 5 10 1010.7 - - - - - - - - -
20/05:30pm - NE 5 12 1010.3 - - - - - - - - -
20/05:00pm - NNE 5 9 1010.1 - - - - - - - - -
20/04:30pm - WNW 4 7 1009.9 - - - - - - - - -
20/04:00pm - W 3 5 1009.7 - - - - - - - - -
20/03:30pm - WNW 5 8 1009.8 - - - - - - - - -
20/03:00pm - W 7 9 1010.1 - - - - - - - - -
20/02:30pm - WNW 7 11 1010.3 - - - - - - - - -
20/02:00pm - WNW 7 13 1010.8 - - - - - - - - -
20/01:30pm - ENE 10 18 1011.2 - - - - - - - - -

Other Formats:

Comma delimited format used in spreadsheet applications
http://www.bom.gov.au/fwo/IDD60701/IDD60701.95122.axf

JavaScript Object Notation format (JSON) in row-major order
http://www.bom.gov.au/fwo/IDD60701/IDD60701.95122.json